sensor_id;sensor_type;location;lat;lon;timestamp;P1;durP1;ratioP1;P2;durP2;ratioP2
58874;SDS011;44652;49.040;12.126;2024-02-26T00:01:50;7.97;;;4.18;;
58874;SDS011;44652;49.040;12.126;2024-02-26T00:04:18;4.75;;;3.42;;
58874;SDS011;44652;49.040;12.126;2024-02-26T00:06:45;6.00;;;3.80;;
58874;SDS011;44652;49.040;12.126;2024-02-26T00:09:12;9.52;;;3.20;;
58874;SDS011;44652;49.040;12.126;2024-02-26T00:11:39;6.97;;;3.47;;
58874;SDS011;44652;49.040;12.126;2024-02-26T00:14:06;4.55;;;3.13;;
58874;SDS011;44652;49.040;12.126;2024-02-26T00:16:33;5.65;;;2.55;;
58874;SDS011;44652;49.040;12.126;2024-02-26T00:19:00;6.38;;;3.03;;
58874;SDS011;44652;49.040;12.126;2024-02-26T00:21:27;4.90;;;2.55;;
58874;SDS011;44652;49.040;12.126;2024-02-26T00:23:54;4.15;;;2.38;;
58874;SDS011;44652;49.040;12.126;2024-02-26T00:26:21;3.40;;;2.00;;
58874;SDS011;44652;49.040;12.126;2024-02-26T00:28:48;5.03;;;2.22;;
58874;SDS011;44652;49.040;12.126;2024-02-26T00:31:15;5.90;;;2.63;;
58874;SDS011;44652;49.040;12.126;2024-02-26T00:33:43;3.65;;;2.60;;
58874;SDS011;44652;49.040;12.126;2024-02-26T00:36:10;5.20;;;2.42;;
58874;SDS011;44652;49.040;12.126;2024-02-26T00:38:37;3.40;;;1.55;;
58874;SDS011;44652;49.040;12.126;2024-02-26T00:41:03;3.58;;;2.25;;
58874;SDS011;44652;49.040;12.126;2024-02-26T00:43:31;4.60;;;2.03;;
58874;SDS011;44652;49.040;12.126;2024-02-26T05:59:36;2.13;;;1.40;;
58874;SDS011;44652;49.040;12.126;2024-02-26T06:02:03;1.55;;;1.02;;
58874;SDS011;44652;49.040;12.126;2024-02-26T06:04:30;2.22;;;1.15;;
58874;SDS011;44652;49.040;12.126;2024-02-26T06:06:57;2.92;;;1.48;;
58874;SDS011;44652;49.040;12.126;2024-02-26T06:09:24;2.40;;;0.77;;
58874;SDS011;44652;49.040;12.126;2024-02-26T06:11:51;3.33;;;1.83;;
58874;SDS011;44652;49.040;12.126;2024-02-26T06:14:18;2.95;;;1.25;;
58874;SDS011;44652;49.040;12.126;2024-02-26T06:16:46;3.90;;;1.88;;
58874;SDS011;44652;49.040;12.126;2024-02-26T06:19:13;2.55;;;1.45;;
58874;SDS011;44652;49.040;12.126;2024-02-26T06:21:40;1.55;;;1.10;;
58874;SDS011;44652;49.040;12.126;2024-02-26T06:24:07;2.58;;;1.13;;
58874;SDS011;44652;49.040;12.126;2024-02-26T06:26:34;1.52;;;1.05;;
58874;SDS011;44652;49.040;12.126;2024-02-26T06:29:01;3.47;;;2.13;;
58874;SDS011;44652;49.040;12.126;2024-02-26T06:31:27;1.02;;;0.85;;
58874;SDS011;44652;49.040;12.126;2024-02-26T06:33:54;4.10;;;1.52;;
58874;SDS011;44652;49.040;12.126;2024-02-26T06:36:22;2.08;;;1.52;;
58874;SDS011;44652;49.040;12.126;2024-02-26T06:38:49;3.50;;;2.50;;
58874;SDS011;44652;49.040;12.126;2024-02-26T06:41:17;1.83;;;1.05;;
58874;SDS011;44652;49.040;12.126;2024-02-26T06:43:44;5.80;;;2.30;;
58874;SDS011;44652;49.040;12.126;2024-02-26T06:46:11;3.00;;;1.55;;
58874;SDS011;44652;49.040;12.126;2024-02-26T06:48:37;3.65;;;2.10;;
58874;SDS011;44652;49.040;12.126;2024-02-26T06:51:04;4.35;;;2.65;;
58874;SDS011;44652;49.040;12.126;2024-02-26T06:53:31;1.55;;;1.20;;
58874;SDS011;44652;49.040;12.126;2024-02-26T06:55:58;6.43;;;2.25;;
58874;SDS011;44652;49.040;12.126;2024-02-26T06:58:24;3.40;;;1.85;;
58874;SDS011;44652;49.040;12.126;2024-02-26T07:00:51;3.55;;;1.83;;
58874;SDS011;44652;49.040;12.126;2024-02-26T07:03:18;3.88;;;1.95;;
58874;SDS011;44652;49.040;12.126;2024-02-26T07:05:45;2.58;;;1.63;;
58874;SDS011;44652;49.040;12.126;2024-02-26T07:08:12;3.47;;;1.35;;
58874;SDS011;44652;49.040;12.126;2024-02-26T07:10:39;2.80;;;2.10;;
58874;SDS011;44652;49.040;12.126;2024-02-26T07:13:06;5.18;;;2.10;;
58874;SDS011;44652;49.040;12.126;2024-02-26T07:15:32;1.95;;;1.33;;
58874;SDS011;44652;49.040;12.126;2024-02-26T07:17:59;3.42;;;1.45;;
58874;SDS011;44652;49.040;12.126;2024-02-26T07:20:30;1.42;;;1.05;;
58874;SDS011;44652;49.040;12.126;2024-02-26T07:22:57;2.50;;;1.38;;
58874;SDS011;44652;49.040;12.126;2024-02-26T07:25:24;3.22;;;1.30;;
58874;SDS011;44652;49.040;12.126;2024-02-26T07:27:50;4.72;;;1.85;;
58874;SDS011;44652;49.040;12.126;2024-02-26T07:30:17;1.75;;;1.05;;
58874;SDS011;44652;49.040;12.126;2024-02-26T07:32:44;3.22;;;1.38;;
58874;SDS011;44652;49.040;12.126;2024-02-26T07:35:16;3.95;;;1.48;;
58874;SDS011;44652;49.040;12.126;2024-02-26T07:37:44;2.93;;;1.67;;
58874;SDS011;44652;49.040;12.126;2024-02-26T07:40:10;3.45;;;1.88;;
58874;SDS011;44652;49.040;12.126;2024-02-26T07:42:41;3.85;;;2.17;;
58874;SDS011;44652;49.040;12.126;2024-02-26T07:45:07;3.88;;;2.15;;
58874;SDS011;44652;49.040;12.126;2024-02-26T07:47:34;1.63;;;1.08;;
58874;SDS011;44652;49.040;12.126;2024-02-26T07:50:02;2.50;;;1.52;;
58874;SDS011;44652;49.040;12.126;2024-02-26T07:52:29;3.42;;;1.75;;
58874;SDS011;44652;49.040;12.126;2024-02-26T07:54:55;4.05;;;2.03;;
58874;SDS011;44652;49.040;12.126;2024-02-26T07:57:22;3.65;;;1.55;;
58874;SDS011;44652;49.040;12.126;2024-02-26T07:59:49;3.53;;;2.08;;
58874;SDS011;44652;49.040;12.126;2024-02-26T08:02:16;2.33;;;1.52;;
58874;SDS011;44652;49.040;12.126;2024-02-26T08:04:43;3.78;;;1.60;;
58874;SDS011;44652;49.040;12.126;2024-02-26T08:07:10;3.10;;;1.95;;
58874;SDS011;44652;49.040;12.126;2024-02-26T08:09:37;3.55;;;1.92;;
58874;SDS011;44652;49.040;12.126;2024-02-26T08:12:04;2.45;;;1.77;;
58874;SDS011;44652;49.040;12.126;2024-02-26T08:14:31;4.45;;;1.42;;
58874;SDS011;44652;49.040;12.126;2024-02-26T08:16:59;3.58;;;2.05;;
58874;SDS011;44652;49.040;12.126;2024-02-26T08:19:26;3.58;;;2.47;;
58874;SDS011;44652;49.040;12.126;2024-02-26T08:21:53;6.40;;;2.07;;
58874;SDS011;44652;49.040;12.126;2024-02-26T08:24:21;3.30;;;1.70;;
58874;SDS011;44652;49.040;12.126;2024-02-26T08:26:47;5.00;;;1.63;;
58874;SDS011;44652;49.040;12.126;2024-02-26T08:29:14;3.10;;;2.10;;
58874;SDS011;44652;49.040;12.126;2024-02-26T08:31:41;4.25;;;2.50;;
58874;SDS011;44652;49.040;12.126;2024-02-26T08:34:08;1.75;;;1.45;;
58874;SDS011;44652;49.040;12.126;2024-02-26T08:36:35;6.10;;;3.33;;
58874;SDS011;44652;49.040;12.126;2024-02-26T08:39:02;4.10;;;2.47;;
58874;SDS011;44652;49.040;12.126;2024-02-26T08:41:29;2.80;;;1.83;;
58874;SDS011;44652;49.040;12.126;2024-02-26T08:43:56;3.42;;;2.15;;
58874;SDS011;44652;49.040;12.126;2024-02-26T08:46:24;4.20;;;2.13;;
58874;SDS011;44652;49.040;12.126;2024-02-26T08:48:51;4.60;;;2.13;;
58874;SDS011;44652;49.040;12.126;2024-02-26T08:51:18;3.38;;;1.70;;
58874;SDS011;44652;49.040;12.126;2024-02-26T08:53:44;3.67;;;1.77;;
58874;SDS011;44652;49.040;12.126;2024-02-26T08:56:11;7.25;;;3.10;;
58874;SDS011;44652;49.040;12.126;2024-02-26T08:58:44;5.28;;;1.95;;
58874;SDS011;44652;49.040;12.126;2024-02-26T09:01:12;2.30;;;1.75;;
58874;SDS011;44652;49.040;12.126;2024-02-26T09:03:39;3.53;;;1.90;;
58874;SDS011;44652;49.040;12.126;2024-02-26T09:06:06;2.17;;;1.60;;
58874;SDS011;44652;49.040;12.126;2024-02-26T09:08:33;2.47;;;1.50;;
58874;SDS011;44652;49.040;12.126;2024-02-26T09:11:02;3.22;;;1.83;;
58874;SDS011;44652;49.040;12.126;2024-02-26T09:13:29;2.90;;;1.35;;
58874;SDS011;44652;49.040;12.126;2024-02-26T09:15:56;5.85;;;2.42;;
58874;SDS011;44652;49.040;12.126;2024-02-26T09:18:23;5.82;;;2.72;;
58874;SDS011;44652;49.040;12.126;2024-02-26T09:20:50;3.30;;;1.85;;
58874;SDS011;44652;49.040;12.126;2024-02-26T09:23:17;2.75;;;1.38;;
58874;SDS011;44652;49.040;12.126;2024-02-26T09:25:44;3.33;;;1.75;;
58874;SDS011;44652;49.040;12.126;2024-02-26T09:28:10;4.85;;;2.22;;
58874;SDS011;44652;49.040;12.126;2024-02-26T09:30:37;2.38;;;1.52;;
58874;SDS011;44652;49.040;12.126;2024-02-26T09:33:05;4.80;;;2.53;;
58874;SDS011;44652;49.040;12.126;2024-02-26T09:35:31;4.75;;;2.63;;
58874;SDS011;44652;49.040;12.126;2024-02-26T09:37:58;3.00;;;1.77;;
58874;SDS011;44652;49.040;12.126;2024-02-26T09:40:25;2.72;;;1.73;;
58874;SDS011;44652;49.040;12.126;2024-02-26T09:42:52;4.32;;;2.10;;
58874;SDS011;44652;49.040;12.126;2024-02-26T09:45:23;2.83;;;1.40;;
58874;SDS011;44652;49.040;12.126;2024-02-26T09:47:55;4.05;;;1.80;;
58874;SDS011;44652;49.040;12.126;2024-02-26T09:52:50;1.30;;;0.68;;
58874;SDS011;44652;49.040;12.126;2024-02-26T09:55:18;1.90;;;0.82;;
58874;SDS011;44652;49.040;12.126;2024-02-26T09:57:46;1.27;;;0.70;;
58874;SDS011;44652;49.040;12.126;2024-02-26T10:00:14;2.10;;;0.93;;
58874;SDS011;44652;49.040;12.126;2024-02-26T10:02:45;1.02;;;0.63;;
58874;SDS011;44652;49.040;12.126;2024-02-26T10:05:18;2.88;;;0.80;;
58874;SDS011;44652;49.040;12.126;2024-02-26T10:07:46;2.03;;;0.57;;
58874;SDS011;44652;49.040;12.126;2024-02-26T10:10:13;2.08;;;0.77;;
58874;SDS011;44652;49.040;12.126;2024-02-26T10:15:08;1.85;;;0.90;;
58874;SDS011;44652;49.040;12.126;2024-02-26T10:17:35;1.48;;;0.95;;
58874;SDS011;44652;49.040;12.126;2024-02-26T10:20:12;1.25;;;0.75;;
58874;SDS011;44652;49.040;12.126;2024-02-26T10:22:58;0.68;;;0.65;;
58874;SDS011;44652;49.040;12.126;2024-02-26T10:25:29;0.88;;;0.55;;
58874;SDS011;44652;49.040;12.126;2024-02-26T10:28:00;1.00;;;0.80;;
58874;SDS011;44652;49.040;12.126;2024-02-26T10:30:29;4.05;;;1.27;;
58874;SDS011;44652;49.040;12.126;2024-02-26T10:32:56;0.75;;;0.73;;
58874;SDS011;44652;49.040;12.126;2024-02-26T10:35:24;0.70;;;0.52;;
58874;SDS011;44652;49.040;12.126;2024-02-26T10:37:51;1.42;;;0.90;;
58874;SDS011;44652;49.040;12.126;2024-02-26T10:40:18;4.37;;;0.70;;
58874;SDS011;44652;49.040;12.126;2024-02-26T10:42:45;2.28;;;0.70;;
58874;SDS011;44652;49.040;12.126;2024-02-26T10:45:12;1.38;;;0.77;;
58874;SDS011;44652;49.040;12.126;2024-02-26T10:47:40;1.85;;;1.00;;
58874;SDS011;44652;49.040;12.126;2024-02-26T10:50:10;1.83;;;0.60;;
58874;SDS011;44652;49.040;12.126;2024-02-26T10:52:40;1.10;;;0.70;;
58874;SDS011;44652;49.040;12.126;2024-02-26T10:55:08;0.85;;;0.57;;
58874;SDS011;44652;49.040;12.126;2024-02-26T10:57:41;2.90;;;0.68;;
58874;SDS011;44652;49.040;12.126;2024-02-26T11:00:14;1.10;;;0.63;;
58874;SDS011;44652;49.040;12.126;2024-02-26T11:02:42;1.73;;;0.70;;
58874;SDS011;44652;49.040;12.126;2024-02-26T11:05:11;1.05;;;0.70;;
58874;SDS011;44652;49.040;12.126;2024-02-26T11:07:39;0.70;;;0.50;;
58874;SDS011;44652;49.040;12.126;2024-02-26T11:10:08;1.65;;;0.98;;
58874;SDS011;44652;49.040;12.126;2024-02-26T11:12:37;1.48;;;0.63;;
58874;SDS011;44652;49.040;12.126;2024-02-26T11:17:33;0.93;;;0.68;;
58874;SDS011;44652;49.040;12.126;2024-02-26T11:20:01;1.23;;;0.60;;
58874;SDS011;44652;49.040;12.126;2024-02-26T11:22:32;0.95;;;0.60;;
58874;SDS011;44652;49.040;12.126;2024-02-26T11:24:59;1.10;;;0.70;;
58874;SDS011;44652;49.040;12.126;2024-02-26T11:27:30;4.43;;;0.75;;
58874;SDS011;44652;49.040;12.126;2024-02-26T11:30:01;3.83;;;0.60;;
58874;SDS011;44652;49.040;12.126;2024-02-26T11:32:29;1.55;;;0.60;;
58874;SDS011;44652;49.040;12.126;2024-02-26T11:35:05;4.82;;;0.73;;
58874;SDS011;44652;49.040;12.126;2024-02-26T11:38:36;1.23;;;0.65;;
58874;SDS011;44652;49.040;12.126;2024-02-26T11:41:04;2.08;;;0.93;;
58874;SDS011;44652;49.040;12.126;2024-02-26T11:43:50;3.40;;;1.58;;
58874;SDS011;44652;49.040;12.126;2024-02-26T11:46:30;1.35;;;0.80;;
58874;SDS011;44652;49.040;12.126;2024-02-26T11:49:41;4.25;;;1.20;;
58874;SDS011;44652;49.040;12.126;2024-02-26T11:51:55;2.20;;;1.05;;
58874;SDS011;44652;49.040;12.126;2024-02-26T11:54:43;1.73;;;0.90;;
58874;SDS011;44652;49.040;12.126;2024-02-26T11:59:48;3.53;;;1.35;;
58874;SDS011;44652;49.040;12.126;2024-02-26T12:02:37;2.42;;;1.33;;
58874;SDS011;44652;49.040;12.126;2024-02-26T12:05:14;1.75;;;0.95;;
58874;SDS011;44652;49.040;12.126;2024-02-26T12:07:47;2.22;;;0.75;;
58874;SDS011;44652;49.040;12.126;2024-02-26T12:10:27;1.38;;;0.63;;
58874;SDS011;44652;49.040;12.126;2024-02-26T12:13:08;3.72;;;0.60;;
58874;SDS011;44652;49.040;12.126;2024-02-26T12:15:45;1.20;;;0.73;;
58874;SDS011;44652;49.040;12.126;2024-02-26T12:18:22;1.13;;;0.63;;
58874;SDS011;44652;49.040;12.126;2024-02-26T12:21:02;1.48;;;0.73;;
58874;SDS011;44652;49.040;12.126;2024-02-26T12:23:30;1.65;;;0.70;;
58874;SDS011;44652;49.040;12.126;2024-02-26T12:26:00;4.60;;;0.98;;
58874;SDS011;44652;49.040;12.126;2024-02-26T12:28:32;2.95;;;0.70;;
58874;SDS011;44652;49.040;12.126;2024-02-26T12:30:59;0.40;;;0.40;;
58874;SDS011;44652;49.040;12.126;2024-02-26T12:33:27;0.80;;;0.50;;
58874;SDS011;44652;49.040;12.126;2024-02-26T12:35:56;0.45;;;0.40;;
58874;SDS011;44652;49.040;12.126;2024-02-26T12:38:23;1.55;;;0.88;;
58874;SDS011;44652;49.040;12.126;2024-02-26T12:40:50;1.05;;;0.65;;
58874;SDS011;44652;49.040;12.126;2024-02-26T12:43:17;1.25;;;0.73;;
58874;SDS011;44652;49.040;12.126;2024-02-26T12:45:44;1.45;;;0.70;;
58874;SDS011;44652;49.040;12.126;2024-02-26T12:48:13;2.10;;;1.00;;
58874;SDS011;44652;49.040;12.126;2024-02-26T12:50:44;1.38;;;0.52;;
58874;SDS011;44652;49.040;12.126;2024-02-26T12:53:11;1.65;;;1.10;;
58874;SDS011;44652;49.040;12.126;2024-02-26T12:55:38;1.58;;;0.88;;
58874;SDS011;44652;49.040;12.126;2024-02-26T13:00:34;1.67;;;1.17;;
58874;SDS011;44652;49.040;12.126;2024-02-26T13:03:01;1.70;;;0.90;;
58874;SDS011;44652;49.040;12.126;2024-02-26T13:05:28;1.33;;;0.82;;
58874;SDS011;44652;49.040;12.126;2024-02-26T13:07:56;1.00;;;0.43;;
58874;SDS011;44652;49.040;12.126;2024-02-26T13:10:23;1.52;;;0.80;;
58874;SDS011;44652;49.040;12.126;2024-02-26T13:12:51;0.65;;;0.43;;
58874;SDS011;44652;49.040;12.126;2024-02-26T13:15:19;0.63;;;0.55;;
58874;SDS011;44652;49.040;12.126;2024-02-26T13:17:49;1.77;;;0.77;;
58874;SDS011;44652;49.040;12.126;2024-02-26T13:20:34;1.92;;;0.90;;
58874;SDS011;44652;49.040;12.126;2024-02-26T13:23:03;1.30;;;0.40;;
58874;SDS011;44652;49.040;12.126;2024-02-26T13:25:32;1.45;;;0.77;;
58874;SDS011;44652;49.040;12.126;2024-02-26T13:28:15;1.73;;;0.93;;
58874;SDS011;44652;49.040;12.126;2024-02-26T13:30:51;1.67;;;1.10;;
58874;SDS011;44652;49.040;12.126;2024-02-26T13:33:19;2.58;;;1.17;;
58874;SDS011;44652;49.040;12.126;2024-02-26T13:35:47;4.68;;;1.48;;
58874;SDS011;44652;49.040;12.126;2024-02-26T13:38:14;3.70;;;1.35;;
58874;SDS011;44652;49.040;12.126;2024-02-26T13:40:40;4.10;;;1.50;;
58874;SDS011;44652;49.040;12.126;2024-02-26T13:43:07;3.63;;;1.48;;
58874;SDS011;44652;49.040;12.126;2024-02-26T13:45:34;3.47;;;1.65;;
58874;SDS011;44652;49.040;12.126;2024-02-26T13:48:06;3.30;;;1.58;;
58874;SDS011;44652;49.040;12.126;2024-02-26T13:50:40;3.17;;;1.67;;
58874;SDS011;44652;49.040;12.126;2024-02-26T13:53:09;4.93;;;1.88;;
58874;SDS011;44652;49.040;12.126;2024-02-26T13:55:37;3.42;;;1.60;;
58874;SDS011;44652;49.040;12.126;2024-02-26T13:58:04;3.72;;;1.50;;
58874;SDS011;44652;49.040;12.126;2024-02-26T14:00:31;3.10;;;1.30;;
58874;SDS011;44652;49.040;12.126;2024-02-26T14:03:00;3.35;;;1.65;;
58874;SDS011;44652;49.040;12.126;2024-02-26T14:05:28;3.15;;;1.63;;
58874;SDS011;44652;49.040;12.126;2024-02-26T14:07:56;4.63;;;1.88;;
58874;SDS011;44652;49.040;12.126;2024-02-26T14:10:23;2.67;;;1.63;;
58874;SDS011;44652;49.040;12.126;2024-02-26T14:12:50;4.10;;;1.90;;
58874;SDS011;44652;49.040;12.126;2024-02-26T14:15:17;4.57;;;1.58;;
58874;SDS011;44652;49.040;12.126;2024-02-26T14:17:44;4.00;;;1.85;;
58874;SDS011;44652;49.040;12.126;2024-02-26T14:20:12;2.92;;;1.30;;
58874;SDS011;44652;49.040;12.126;2024-02-26T14:22:39;2.85;;;1.42;;
58874;SDS011;44652;49.040;12.126;2024-02-26T14:25:06;4.25;;;1.92;;
58874;SDS011;44652;49.040;12.126;2024-02-26T14:27:35;4.40;;;1.35;;
58874;SDS011;44652;49.040;12.126;2024-02-26T14:30:03;3.70;;;1.70;;
58874;SDS011;44652;49.040;12.126;2024-02-26T14:32:30;4.47;;;2.15;;
58874;SDS011;44652;49.040;12.126;2024-02-26T14:35:01;3.15;;;1.70;;
58874;SDS011;44652;49.040;12.126;2024-02-26T14:37:29;3.45;;;1.80;;
58874;SDS011;44652;49.040;12.126;2024-02-26T14:39:56;4.07;;;1.80;;
58874;SDS011;44652;49.040;12.126;2024-02-26T14:42:22;7.47;;;1.95;;
58874;SDS011;44652;49.040;12.126;2024-02-26T14:44:50;4.35;;;1.85;;
58874;SDS011;44652;49.040;12.126;2024-02-26T14:47:17;4.45;;;1.88;;
58874;SDS011;44652;49.040;12.126;2024-02-26T14:49:44;3.67;;;1.98;;
58874;SDS011;44652;49.040;12.126;2024-02-26T14:52:14;3.47;;;2.03;;
58874;SDS011;44652;49.040;12.126;2024-02-26T14:54:41;4.05;;;2.30;;
58874;SDS011;44652;49.040;12.126;2024-02-26T14:57:08;3.80;;;1.95;;
58874;SDS011;44652;49.040;12.126;2024-02-26T14:59:35;3.88;;;1.95;;
58874;SDS011;44652;49.040;12.126;2024-02-26T15:02:03;4.53;;;2.42;;
58874;SDS011;44652;49.040;12.126;2024-02-26T15:04:30;4.13;;;2.17;;
58874;SDS011;44652;49.040;12.126;2024-02-26T15:06:57;6.70;;;2.20;;
58874;SDS011;44652;49.040;12.126;2024-02-26T15:09:24;3.63;;;2.00;;
58874;SDS011;44652;49.040;12.126;2024-02-26T15:11:50;4.25;;;2.20;;
58874;SDS011;44652;49.040;12.126;2024-02-26T15:14:18;5.43;;;2.00;;
58874;SDS011;44652;49.040;12.126;2024-02-26T15:16:44;3.78;;;1.75;;
58874;SDS011;44652;49.040;12.126;2024-02-26T15:19:11;5.05;;;2.35;;
58874;SDS011;44652;49.040;12.126;2024-02-26T15:21:43;5.13;;;2.30;;
58874;SDS011;44652;49.040;12.126;2024-02-26T15:24:10;5.18;;;2.20;;
58874;SDS011;44652;49.040;12.126;2024-02-26T15:29:39;4.63;;;2.30;;
58874;SDS011;44652;49.040;12.126;2024-02-26T15:32:06;4.72;;;2.13;;
58874;SDS011;44652;49.040;12.126;2024-02-26T15:34:32;5.68;;;2.60;;
58874;SDS011;44652;49.040;12.126;2024-02-26T15:36:59;5.07;;;2.28;;
58874;SDS011;44652;49.040;12.126;2024-02-26T15:39:26;4.78;;;1.90;;
58874;SDS011;44652;49.040;12.126;2024-02-26T15:41:53;6.50;;;2.78;;
58874;SDS011;44652;49.040;12.126;2024-02-26T15:44:20;4.65;;;2.28;;
58874;SDS011;44652;49.040;12.126;2024-02-26T15:46:47;5.07;;;2.22;;
58874;SDS011;44652;49.040;12.126;2024-02-26T15:49:13;7.55;;;2.80;;
58874;SDS011;44652;49.040;12.126;2024-02-26T15:51:42;6.03;;;2.17;;
58874;SDS011;44652;49.040;12.126;2024-02-26T15:54:09;4.97;;;2.42;;
58874;SDS011;44652;49.040;12.126;2024-02-26T15:56:36;5.97;;;2.75;;
58874;SDS011;44652;49.040;12.126;2024-02-26T15:59:04;6.38;;;3.05;;
58874;SDS011;44652;49.040;12.126;2024-02-26T16:01:31;8.40;;;3.50;;
58874;SDS011;44652;49.040;12.126;2024-02-26T16:03:58;5.57;;;3.20;;
58874;SDS011;44652;49.040;12.126;2024-02-26T16:06:29;14.52;;;3.67;;
58874;SDS011;44652;49.040;12.126;2024-02-26T16:08:59;24.05;;;6.38;;
58874;SDS011;44652;49.040;12.126;2024-02-26T16:11:26;9.32;;;4.05;;
58874;SDS011;44652;49.040;12.126;2024-02-26T16:13:59;6.60;;;2.85;;
58874;SDS011;44652;49.040;12.126;2024-02-26T16:16:36;10.77;;;2.88;;
58874;SDS011;44652;49.040;12.126;2024-02-26T16:19:11;7.25;;;2.72;;
58874;SDS011;44652;49.040;12.126;2024-02-26T16:21:45;8.57;;;3.25;;
58874;SDS011;44652;49.040;12.126;2024-02-26T16:24:12;6.93;;;3.40;;
58874;SDS011;44652;49.040;12.126;2024-02-26T16:26:39;7.13;;;3.10;;
58874;SDS011;44652;49.040;12.126;2024-02-26T16:29:06;6.20;;;2.97;;
58874;SDS011;44652;49.040;12.126;2024-02-26T16:31:33;7.63;;;2.83;;
58874;SDS011;44652;49.040;12.126;2024-02-26T16:34:05;7.93;;;3.47;;
58874;SDS011;44652;49.040;12.126;2024-02-26T16:36:35;7.57;;;3.58;;
58874;SDS011;44652;49.040;12.126;2024-02-26T16:39:02;8.57;;;3.88;;
58874;SDS011;44652;49.040;12.126;2024-02-26T16:41:35;7.60;;;3.17;;
58874;SDS011;44652;49.040;12.126;2024-02-26T16:44:02;9.15;;;3.65;;
58874;SDS011;44652;49.040;12.126;2024-02-26T16:46:29;6.20;;;3.87;;
58874;SDS011;44652;49.040;12.126;2024-02-26T16:48:56;9.48;;;3.65;;
58874;SDS011;44652;49.040;12.126;2024-02-26T16:51:23;6.72;;;3.00;;
58874;SDS011;44652;49.040;12.126;2024-02-26T16:53:50;5.85;;;3.63;;
58874;SDS011;44652;49.040;12.126;2024-02-26T16:56:16;8.27;;;4.05;;
58874;SDS011;44652;49.040;12.126;2024-02-26T16:58:43;8.80;;;3.58;;
58874;SDS011;44652;49.040;12.126;2024-02-26T17:01:10;8.60;;;3.95;;
58874;SDS011;44652;49.040;12.126;2024-02-26T17:03:40;7.38;;;3.47;;
58874;SDS011;44652;49.040;12.126;2024-02-26T17:06:07;8.60;;;4.20;;
58874;SDS011;44652;49.040;12.126;2024-02-26T17:08:34;16.70;;;4.57;;
58874;SDS011;44652;49.040;12.126;2024-02-26T17:11:02;7.10;;;3.45;;
58874;SDS011;44652;49.040;12.126;2024-02-26T17:13:30;7.25;;;3.92;;
58874;SDS011;44652;49.040;12.126;2024-02-26T17:15:57;10.85;;;4.82;;
58874;SDS011;44652;49.040;12.126;2024-02-26T17:18:24;8.88;;;4.35;;
58874;SDS011;44652;49.040;12.126;2024-02-26T17:20:51;8.75;;;3.95;;
58874;SDS011;44652;49.040;12.126;2024-02-26T17:23:18;7.32;;;4.05;;
58874;SDS011;44652;49.040;12.126;2024-02-26T17:25:44;9.15;;;4.40;;
58874;SDS011;44652;49.040;12.126;2024-02-26T17:28:11;10.15;;;4.70;;
58874;SDS011;44652;49.040;12.126;2024-02-26T17:30:38;6.35;;;3.85;;
58874;SDS011;44652;49.040;12.126;2024-02-26T17:33:06;10.25;;;3.55;;
58874;SDS011;44652;49.040;12.126;2024-02-26T17:35:33;10.82;;;3.88;;
58874;SDS011;44652;49.040;12.126;2024-02-26T17:38:00;11.25;;;3.78;;
58874;SDS011;44652;49.040;12.126;2024-02-26T17:40:27;8.00;;;4.55;;
58874;SDS011;44652;49.040;12.126;2024-02-26T17:42:54;10.25;;;4.53;;
58874;SDS011;44652;49.040;12.126;2024-02-26T17:45:21;10.30;;;4.53;;
58874;SDS011;44652;49.040;12.126;2024-02-26T17:50:17;5.70;;;3.15;;
58874;SDS011;44652;49.040;12.126;2024-02-26T17:52:45;9.00;;;4.03;;
58874;SDS011;44652;49.040;12.126;2024-02-26T17:55:11;6.25;;;3.00;;
58874;SDS011;44652;49.040;12.126;2024-02-26T17:57:38;6.07;;;3.25;;
58874;SDS011;44652;49.040;12.126;2024-02-26T18:00:06;9.50;;;5.03;;
58874;SDS011;44652;49.040;12.126;2024-02-26T18:02:33;7.13;;;3.38;;
58874;SDS011;44652;49.040;12.126;2024-02-26T18:05:00;7.47;;;3.58;;
58874;SDS011;44652;49.040;12.126;2024-02-26T18:07:27;5.38;;;3.15;;
58874;SDS011;44652;49.040;12.126;2024-02-26T18:09:53;6.82;;;3.72;;
58874;SDS011;44652;49.040;12.126;2024-02-26T18:12:20;6.10;;;3.45;;
58874;SDS011;44652;49.040;12.126;2024-02-26T18:14:47;7.63;;;3.70;;
58874;SDS011;44652;49.040;12.126;2024-02-26T18:17:14;6.68;;;3.63;;
58874;SDS011;44652;49.040;12.126;2024-02-26T18:19:41;6.28;;;3.47;;
58874;SDS011;44652;49.040;12.126;2024-02-26T18:22:08;6.13;;;3.28;;
58874;SDS011;44652;49.040;12.126;2024-02-26T18:24:34;6.82;;;4.00;;
58874;SDS011;44652;49.040;12.126;2024-02-26T18:27:02;8.55;;;4.00;;
58874;SDS011;44652;49.040;12.126;2024-02-26T18:29:31;8.35;;;3.83;;
58874;SDS011;44652;49.040;12.126;2024-02-26T18:31:57;4.93;;;3.00;;
58874;SDS011;44652;49.040;12.126;2024-02-26T18:34:24;6.93;;;3.38;;
58874;SDS011;44652;49.040;12.126;2024-02-26T18:36:51;6.22;;;2.95;;
58874;SDS011;44652;49.040;12.126;2024-02-26T18:39:18;5.80;;;3.03;;
58874;SDS011;44652;49.040;12.126;2024-02-26T18:41:45;6.32;;;3.17;;
58874;SDS011;44652;49.040;12.126;2024-02-26T18:44:11;8.43;;;3.20;;
58874;SDS011;44652;49.040;12.126;2024-02-26T18:46:47;6.85;;;3.70;;
58874;SDS011;44652;49.040;12.126;2024-02-26T18:49:14;6.72;;;3.45;;
58874;SDS011;44652;49.040;12.126;2024-02-26T18:51:41;6.53;;;2.90;;
58874;SDS011;44652;49.040;12.126;2024-02-26T18:54:08;6.43;;;3.15;;
58874;SDS011;44652;49.040;12.126;2024-02-26T18:56:35;7.85;;;3.28;;
58874;SDS011;44652;49.040;12.126;2024-02-26T18:59:02;6.28;;;3.67;;
58874;SDS011;44652;49.040;12.126;2024-02-26T19:01:29;6.68;;;3.38;;
58874;SDS011;44652;49.040;12.126;2024-02-26T19:03:57;6.65;;;3.05;;
58874;SDS011;44652;49.040;12.126;2024-02-26T19:06:24;6.88;;;2.92;;
58874;SDS011;44652;49.040;12.126;2024-02-26T19:08:56;6.50;;;3.38;;
58874;SDS011;44652;49.040;12.126;2024-02-26T19:11:22;8.02;;;3.78;;
58874;SDS011;44652;49.040;12.126;2024-02-26T19:13:49;9.90;;;5.25;;
58874;SDS011;44652;49.040;12.126;2024-02-26T19:16:16;7.93;;;4.18;;
58874;SDS011;44652;49.040;12.126;2024-02-26T19:18:44;5.43;;;3.40;;
58874;SDS011;44652;49.040;12.126;2024-02-26T19:21:11;5.40;;;3.38;;
58874;SDS011;44652;49.040;12.126;2024-02-26T19:23:38;6.80;;;2.53;;
58874;SDS011;44652;49.040;12.126;2024-02-26T19:26:05;5.57;;;3.00;;
58874;SDS011;44652;49.040;12.126;2024-02-26T19:28:32;6.93;;;3.65;;
58874;SDS011;44652;49.040;12.126;2024-02-26T19:30:58;8.43;;;4.35;;
58874;SDS011;44652;49.040;12.126;2024-02-26T19:33:25;6.90;;;3.50;;
58874;SDS011;44652;49.040;12.126;2024-02-26T19:35:52;6.68;;;2.85;;
58874;SDS011;44652;49.040;12.126;2024-02-26T19:38:20;5.47;;;3.30;;
58874;SDS011;44652;49.040;12.126;2024-02-26T19:40:47;5.95;;;3.05;;
58874;SDS011;44652;49.040;12.126;2024-02-26T19:43:14;5.82;;;2.85;;
58874;SDS011;44652;49.040;12.126;2024-02-26T19:45:41;8.43;;;3.27;;
58874;SDS011;44652;49.040;12.126;2024-02-26T19:48:08;4.40;;;2.22;;
58874;SDS011;44652;49.040;12.126;2024-02-26T19:50:35;6.72;;;3.70;;
58874;SDS011;44652;49.040;12.126;2024-02-26T19:53:02;5.38;;;3.15;;
58874;SDS011;44652;49.040;12.126;2024-02-26T19:55:29;6.75;;;3.22;;
58874;SDS011;44652;49.040;12.126;2024-02-26T19:57:56;6.50;;;4.05;;
58874;SDS011;44652;49.040;12.126;2024-02-26T20:00:25;8.18;;;4.55;;
58874;SDS011;44652;49.040;12.126;2024-02-26T20:02:53;7.43;;;4.05;;
58874;SDS011;44652;49.040;12.126;2024-02-26T20:05:20;8.60;;;3.90;;
58874;SDS011;44652;49.040;12.126;2024-02-26T20:07:47;7.70;;;3.88;;
58874;SDS011;44652;49.040;12.126;2024-02-26T20:10:13;7.53;;;3.65;;
58874;SDS011;44652;49.040;12.126;2024-02-26T20:12:40;6.47;;;3.75;;